Time;durP1;ratioP1;P1;durP2;ratioP2;P2;SDS_P1;SDS_P2;PMS_P1;PMS_P2;Temp;Humidity;BMP_temperature;BMP_pressure;BME280_temperature;BME280_humidity;BME280_pressure;Samples;Min_cycle;Max_cycle;Signal;HPM_P1;HPM_P2
2023/05/02 00:00:09;;;;;;;0.10;0.10;;;13.50;99.90;;;;;;5077308;28;20028;-71
2023/05/02 00:02:35;;;;;;;0.10;0.10;;;13.50;99.90;;;;;;5075316;28;20474;-75
2023/05/02 00:05:01;;;;;;;0.10;0.10;;;13.50;99.90;;;;;;5077132;28;20032;-71
2023/05/02 00:07:27;;;;;;;0.10;0.10;;;13.50;99.90;;;;;;5076560;28;20024;-72
2023/05/02 00:09:53;;;;;;;0.10;0.10;;;13.50;99.90;;;;;;5076688;28;20065;-74
2023/05/02 00:12:19;;;;;;;0.20;0.20;;;13.30;99.90;;;;;;5076710;28;20033;-73
2023/05/02 00:14:45;;;;;;;0.93;0.93;;;13.30;99.90;;;;;;5076551;28;20035;-72
2023/05/02 00:17:18;;;;;;;0.10;0.10;;;13.30;99.90;;;;;;5076545;28;20051;-72
2023/05/02 00:19:44;;;;;;;0.25;0.25;;;13.20;99.90;;;;;;5076714;28;20189;-72
2023/05/02 00:22:09;;;;;;;0.10;0.10;;;13.20;99.90;;;;;;5080638;28;20444;-72
2023/05/02 00:24:35;;;;;;;0.10;0.10;;;13.30;99.90;;;;;;5080531;28;20564;-73
2023/05/02 00:27:01;;;;;;;0.50;0.50;;;13.30;99.90;;;;;;5080484;28;20057;-73
2023/05/02 00:29:27;;;;;;;0.10;0.10;;;13.30;99.90;;;;;;5080161;28;20498;-73
2023/05/02 00:31:53;;;;;;;0.40;0.40;;;13.30;99.90;;;;;;5080027;28;20074;-72
2023/05/02 00:34:18;;;;;;;0.20;0.20;;;13.30;99.90;;;;;;5079039;28;20036;-72
2023/05/02 00:36:44;;;;;;;0.17;0.17;;;13.20;99.90;;;;;;5079983;28;20028;-73
2023/05/02 00:39:10;;;;;;;0.20;0.20;;;14.00;99.90;;;;;;5079549;28;20020;-73
2023/05/02 00:41:36;;;;;;;0.10;0.10;;;13.10;99.90;;;;;;5079964;28;20028;-72
2023/05/02 00:44:01;;;;;;;1.42;1.42;;;13.10;99.90;;;;;;5081022;28;20637;-74
2023/05/02 00:46:27;;;;;;;0.10;0.10;;;13.00;99.90;;;;;;5079928;28;20028;-74
2023/05/02 00:48:53;;;;;;;0.10;0.10;;;13.00;99.90;;;;;;5079885;28;20028;-73
2023/05/02 00:51:19;;;;;;;0.00;0.00;;;13.00;99.90;;;;;;5079802;28;20260;-75
2023/05/02 00:53:45;;;;;;;0.10;0.10;;;13.00;99.90;;;;;;5080649;28;20039;-75
2023/05/02 00:56:11;;;;;;;0.10;0.10;;;12.90;99.90;;;;;;5079946;28;20122;-72
2023/05/02 00:58:39;;;;;;;0.10;0.10;;;12.90;99.90;;;;;;5079542;28;20577;-73
2023/05/02 01:01:47;;;;;;;0.00;0.00;;;13.00;99.90;;;;;;5079930;28;20024;-72
2023/05/02 01:04:19;;;;;;;0.10;0.10;;;13.00;99.90;;;;;;5078410;28;20047;-72
2023/05/02 01:06:54;;;;;;;0.10;0.10;;;13.00;99.90;;;;;;5082774;28;20012;-72
2023/05/02 01:09:29;;;;;;;0.10;0.10;;;13.10;99.90;;;;;;5082030;28;20077;-75
2023/05/02 01:12:03;;;;;;;0.10;0.10;;;13.10;99.90;;;;;;5080911;28;20090;-74
2023/05/02 01:14:32;;;;;;;0.10;0.10;;;13.10;99.90;;;;;;5080163;28;20673;-75
2023/05/02 01:17:03;;;;;;;0.10;0.10;;;13.10;99.90;;;;;;5079300;28;20028;-72
2023/05/02 01:19:34;;;;;;;0.10;0.10;;;13.10;99.90;;;;;;5079333;28;20588;-75
2023/05/02 01:22:05;;;;;;;0.20;0.20;;;13.10;99.90;;;;;;5079106;28;20031;-74
2023/05/02 01:24:53;;;;;;;0.20;0.20;;;13.10;99.90;;;;;;5079074;28;20255;-72
2023/05/02 01:27:40;;;;;;;0.10;0.10;;;13.10;99.90;;;;;;5078858;28;20198;-72
2023/05/02 01:30:07;;;;;;;0.10;0.10;;;13.00;99.90;;;;;;5079255;28;20019;-72
2023/05/02 01:32:36;;;;;;;0.10;0.10;;;13.10;99.90;;;;;;5078540;28;20240;-73
2023/05/02 01:35:03;;;;;;;0.10;0.10;;;13.10;99.90;;;;;;5078861;28;20133;-72
2023/05/02 01:37:30;;;;;;;0.10;0.10;;;13.10;99.90;;;;;;5078899;28;20217;-73
2023/05/02 01:39:57;;;;;;;0.15;0.15;;;13.10;99.90;;;;;;5078623;28;20016;-72
2023/05/02 01:42:25;;;;;;;0.10;0.10;;;13.10;99.90;;;;;;5078658;28;20028;-72
2023/05/02 01:44:55;;;;;;;0.10;0.10;;;13.10;99.90;;;;;;5079023;28;20024;-72
2023/05/02 01:47:23;;;;;;;0.20;0.20;;;13.10;99.90;;;;;;5078547;28;20099;-73
2023/05/02 01:49:50;;;;;;;0.10;0.10;;;13.20;99.90;;;;;;5078607;28;20028;-72
2023/05/02 01:52:20;;;;;;;1.00;1.00;;;13.10;99.90;;;;;;5077328;28;20165;-73
2023/05/02 01:54:49;;;;;;;0.20;0.20;;;13.20;99.90;;;;;;5078204;28;20742;-72
2023/05/02 01:57:16;;;;;;;0.10;0.10;;;13.20;99.90;;;;;;5076929;28;20594;-72
2023/05/02 01:59:43;;;;;;;0.10;0.10;;;14.50;99.90;;;;;;5078237;28;20095;-72
2023/05/02 02:02:12;;;;;;;0.10;0.10;;;13.20;99.90;;;;;;5078343;28;20099;-72
2023/05/02 02:04:39;;;;;;;0.10;0.10;;;13.30;99.90;;;;;;5078318;28;20400;-73
2023/05/02 02:07:11;;;;;;;0.10;0.10;;;13.20;99.90;;;;;;5078140;28;20372;-73
2023/05/02 02:09:37;;;;;;;0.43;0.43;;;13.20;99.90;;;;;;5077990;28;20563;-73
2023/05/02 02:12:12;;;;;;;0.63;0.63;;;13.30;99.90;;;;;;5076986;28;20036;-81
2023/05/02 02:14:41;;;;;;;0.20;0.20;;;13.30;99.90;;;;;;5078097;28;20028;-75
2023/05/02 02:17:35;;;;;;;0.10;0.10;;;13.40;99.90;;;;;;5078089;28;20036;-80
2023/05/02 02:20:04;;;;;;;0.10;0.10;;;13.40;99.90;;;;;;5078048;28;20343;-73
2023/05/02 02:22:36;;;;;;;0.10;0.10;;;13.40;99.90;;;;;;5076594;28;20024;-72
2023/05/02 02:25:07;;;;;;;0.10;0.10;;;13.30;99.90;;;;;;5078038;28;20020;-73
2023/05/02 02:27:33;;;;;;;0.10;0.10;;;13.30;99.90;;;;;;5077427;28;20089;-75
2023/05/02 02:29:59;;;;;;;0.10;0.10;;;13.30;99.90;;;;;;5077806;28;20047;-75
2023/05/02 02:32:25;;;;;;;0.10;0.10;;;14.70;99.90;;;;;;5077671;28;20660;-73
2023/05/02 02:34:51;;;;;;;0.20;0.20;;;13.30;99.90;;;;;;5076296;28;20101;-73
2023/05/02 02:37:44;;;;;;;0.10;0.10;;;13.30;99.90;;;;;;5077499;28;20038;-74
2023/05/02 02:40:46;;;;;;;1.13;1.08;;;13.20;99.90;;;;;;5014142;28;20095;-71
2023/05/02 02:43:33;;;;;;;0.20;0.20;;;13.30;99.90;;;;;;5013719;28;20071;-74
2023/05/02 02:46:29;;;;;;;0.10;0.10;;;13.20;99.90;;;;;;5014401;28;20060;-72
2023/05/02 02:49:02;;;;;;;0.10;0.10;;;13.10;99.90;;;;;;5014401;28;20053;-73
2023/05/02 02:51:34;;;;;;;0.10;0.10;;;13.20;99.90;;;;;;5013983;28;20038;-73
2023/05/02 02:54:13;;;;;;;0.13;0.13;;;13.70;99.90;;;;;;4997687;28;20136;-74
2023/05/02 02:56:41;;;;;;;0.10;0.10;;;13.10;99.90;;;;;;5013978;28;20112;-73
2023/05/02 02:59:12;;;;;;;2.03;1.92;;;11.50;99.90;;;;;;5013230;28;20030;-72
2023/05/02 03:01:42;;;;;;;27.55;25.38;;;13.00;99.90;;;;;;5014077;28;20788;-72
2023/05/02 03:04:11;;;;;;;0.10;0.10;;;13.00;99.90;;;;;;4997377;28;20034;-73
2023/05/02 03:06:38;;;;;;;0.10;0.10;;;12.90;99.90;;;;;;5014217;28;20025;-74
2023/05/02 03:09:04;;;;;;;0.10;0.10;;;12.90;99.90;;;;;;5014030;28;20021;-73
2023/05/02 03:11:29;;;;;;;1.17;1.17;;;12.90;99.90;;;;;;5013933;28;20061;-73
2023/05/02 03:13:55;;;;;;;0.20;0.20;;;12.80;99.90;;;;;;4997470;28;20493;-75
2023/05/02 03:16:38;;;;;;;0.45;0.45;;;12.70;99.90;;;;;;5019759;28;20132;-73
2023/05/02 03:19:05;;;;;;;0.73;0.73;;;12.70;99.90;;;;;;5077187;28;20024;-72
2023/05/02 03:21:31;;;;;;;2.50;2.40;;;12.70;99.90;;;;;;5077235;28;20713;-72
2023/05/02 03:24:01;;;;;;;0.15;0.15;;;12.60;99.90;;;;;;5075708;28;20024;-73
2023/05/02 03:26:27;;;;;;;0.10;0.10;;;12.60;99.90;;;;;;5077946;28;20209;-73
2023/05/02 03:28:54;;;;;;;0.20;0.20;;;12.50;99.90;;;;;;5078888;28;20343;-74
2023/05/02 03:31:20;;;;;;;0.10;0.10;;;12.50;99.90;;;;;;5078581;28;20107;-75
2023/05/02 03:33:46;;;;;;;0.30;0.30;;;12.50;99.90;;;;;;5077904;28;20016;-75
2023/05/02 03:36:13;;;;;;;0.10;0.10;;;12.50;99.90;;;;;;5078536;28;20024;-72
2023/05/02 03:38:38;;;;;;;0.20;0.20;;;12.50;99.90;;;;;;5078795;28;20177;-76
2023/05/02 03:41:05;;;;;;;0.40;0.40;;;12.40;99.90;;;;;;5077889;28;20149;-73
2023/05/02 03:43:31;;;;;;;0.10;0.10;;;12.40;99.90;;;;;;5077842;28;20027;-72
2023/05/02 03:45:57;;;;;;;0.10;0.10;;;12.40;99.90;;;;;;5077479;28;20024;-71
2023/05/02 03:48:23;;;;;;;0.10;0.10;;;12.40;99.90;;;;;;5077936;28;20705;-72
2023/05/02 03:50:49;;;;;;;0.10;0.10;;;12.40;99.90;;;;;;5077872;28;20024;-74
2023/05/02 03:53:15;;;;;;;0.73;0.73;;;12.50;99.90;;;;;;5077021;28;20036;-74
2023/05/02 03:55:42;;;;;;;0.10;0.10;;;12.40;99.90;;;;;;5079832;28;20043;-72
2023/05/02 03:58:09;;;;;;;0.10;0.10;;;12.40;99.90;;;;;;5081668;28;20189;-73
2023/05/02 04:00:35;;;;;;;0.10;0.10;;;12.50;99.90;;;;;;5081264;28;20016;-74
2023/05/02 04:03:01;;;;;;;0.10;0.10;;;12.50;99.90;;;;;;5080590;28;20028;-78
2023/05/02 04:05:27;;;;;;;0.73;0.73;;;12.50;99.90;;;;;;5081024;28;20028;-79
2023/05/02 04:07:54;;;;;;;0.20;0.20;;;12.50;99.90;;;;;;5080885;28;20048;-72
2023/05/02 04:10:20;;;;;;;0.20;0.20;;;12.50;99.90;;;;;;5080786;28;20028;-73
2023/05/02 04:12:45;;;;;;;0.10;0.10;;;12.60;99.90;;;;;;5080808;28;20037;-74
2023/05/02 04:15:11;;;;;;;1.20;1.20;;;12.60;99.90;;;;;;5080474;28;20095;-73
2023/05/02 04:17:38;;;;;;;0.10;0.10;;;12.60;99.90;;;;;;5078938;28;20601;-74
2023/05/02 04:20:04;;;;;;;0.10;0.10;;;12.50;99.90;;;;;;5080440;28;20177;-71
2023/05/02 04:22:30;;;;;;;0.20;0.20;;;12.60;99.90;;;;;;5080317;28;20047;-74
2023/05/02 04:24:56;;;;;;;0.10;0.10;;;12.50;99.90;;;;;;5080347;28;20429;-72
2023/05/02 04:27:22;;;;;;;0.10;0.10;;;12.50;99.90;;;;;;5080348;28;20498;-73
2023/05/02 04:29:49;;;;;;;0.10;0.10;;;12.50;99.90;;;;;;5080160;28;20095;-73
2023/05/02 04:32:15;;;;;;;0.10;0.10;;;12.50;99.90;;;;;;5080079;28;20016;-72
2023/05/02 04:34:40;;;;;;;0.10;0.10;;;12.50;99.90;;;;;;5078906;28;20028;-83
2023/05/02 04:37:07;;;;;;;0.20;0.20;;;12.50;99.90;;;;;;5080247;28;20028;-72
2023/05/02 04:39:33;;;;;;;0.10;0.10;;;12.50;99.90;;;;;;5080113;28;20032;-72
2023/05/02 04:41:59;;;;;;;0.10;0.10;;;12.60;99.90;;;;;;5080206;28;20115;-73
2023/05/02 04:44:25;;;;;;;0.10;0.10;;;14.60;99.90;;;;;;5080159;28;20107;-72
2023/05/02 04:46:51;;;;;;;0.75;0.75;;;12.70;99.90;;;;;;5079913;28;20036;-72
2023/05/02 04:49:17;;;;;;;0.10;0.10;;;12.70;99.90;;;;;;5080199;28;20059;-72
2023/05/02 04:51:43;;;;;;;0.10;0.10;;;12.70;99.90;;;;;;5081342;28;20523;-74
2023/05/02 04:54:09;;;;;;;0.10;0.10;;;12.60;99.90;;;;;;5083898;28;20072;-73
2023/05/02 04:56:35;;;;;;;0.20;0.20;;;12.80;99.90;;;;;;5082208;28;20083;-74
2023/05/02 04:59:01;;;;;;;0.10;0.10;;;13.30;99.90;;;;;;5083071;28;20028;-76
2023/05/02 05:01:27;;;;;;;0.10;0.10;;;12.70;99.90;;;;;;5080157;28;20377;-75
2023/05/02 05:03:53;;;;;;;0.10;0.10;;;;;;;;;;5078359;28;20028;-75
2023/05/02 05:06:19;;;;;;;0.13;0.13;;;12.60;99.90;;;;;;5077816;28;20099;-73
2023/05/02 05:08:46;;;;;;;0.10;0.10;;;13.10;99.90;;;;;;5079554;28;20103;-72
2023/05/02 05:11:12;;;;;;;0.20;0.20;;;12.40;99.90;;;;;;5079265;28;20093;-72
2023/05/02 05:13:38;;;;;;;0.10;0.10;;;;;;;;;;5079551;28;20024;-74
2023/05/02 05:16:04;;;;;;;0.20;0.20;;;12.80;99.90;;;;;;5078967;28;20036;-75
2023/05/02 05:18:32;;;;;;;1.00;1.00;;;;;;;;;;5079489;28;20475;-74
2023/05/02 05:20:59;;;;;;;0.65;0.65;;;;;;;;;;5079424;28;20070;-75
2023/05/02 05:23:24;;;;;;;0.20;0.20;;;12.90;99.90;;;;;;5079305;28;20327;-78
2023/05/02 05:25:50;;;;;;;0.10;0.10;;;;;;;;;;5078984;28;20054;-74
2023/05/02 05:28:17;;;;;;;0.57;0.57;;;12.60;99.90;;;;;;5079176;28;20227;-74
2023/05/02 05:30:43;;;;;;;0.10;0.10;;;12.70;99.90;;;;;;5078749;28;20012;-75
2023/05/02 05:33:09;;;;;;;0.30;0.30;;;12.60;99.90;;;;;;5078825;28;20016;-75
2023/05/02 05:35:36;;;;;;;0.10;0.10;;;12.70;99.90;;;;;;5078875;28;20085;-75
2023/05/02 05:38:02;;;;;;;0.10;0.10;;;12.60;99.90;;;;;;5078787;28;20065;-75
2023/05/02 05:40:27;;;;;;;0.20;0.20;;;13.30;99.90;;;;;;5078627;28;20020;-75
2023/05/02 05:42:53;;;;;;;0.10;0.10;;;;;;;;;;5078880;28;20509;-75
2023/05/02 05:45:19;;;;;;;0.10;0.10;;;12.60;99.90;;;;;;5077090;28;20115;-74
2023/05/02 05:47:45;;;;;;;0.10;0.10;;;;;;;;;;5078455;28;20099;-73
2023/05/02 05:50:11;;;;;;;0.20;0.20;;;12.60;99.90;;;;;;5078827;28;20241;-77
2023/05/02 05:52:37;;;;;;;0.20;0.20;;;;;;;;;;5078423;28;20070;-74
2023/05/02 05:55:03;;;;;;;0.30;0.30;;;12.60;99.90;;;;;;5078291;28;20048;-81
2023/05/02 05:57:29;;;;;;;0.10;0.10;;;;;;;;;;5078279;28;20326;-74
2023/05/02 05:59:55;;;;;;;0.10;0.10;;;12.70;99.90;;;;;;5076857;28;20486;-76
2023/05/02 06:02:21;;;;;;;0.30;0.30;;;12.80;99.90;;;;;;5078218;28;20254;-74
2023/05/02 06:04:47;;;;;;;0.20;0.20;;;12.80;99.90;;;;;;5076394;28;20039;-76
2023/05/02 06:07:13;;;;;;;0.10;0.10;;;12.90;99.90;;;;;;5078106;28;20021;-75
2023/05/02 06:09:39;;;;;;;0.40;0.40;;;13.00;99.90;;;;;;5078118;28;20021;-74
2023/05/02 06:12:05;;;;;;;0.10;0.10;;;13.20;99.90;;;;;;5078277;28;20035;-75
2023/05/02 06:14:30;;;;;;;0.75;0.75;;;13.30;99.90;;;;;;5076604;28;20274;-74
2023/05/02 06:16:59;;;;;;;0.25;0.25;;;13.40;99.90;;;;;;5077841;28;20308;-74
2023/05/02 06:19:25;;;;;;;0.10;0.10;;;13.60;99.90;;;;;;5076889;28;20723;-73
2023/05/02 06:21:50;;;;;;;0.10;0.10;;;13.70;99.90;;;;;;5077665;28;20123;-78
2023/05/02 06:24:16;;;;;;;0.20;0.20;;;13.80;99.90;;;;;;5078590;28;20069;-73
2023/05/02 06:26:42;;;;;;;0.17;0.17;;;13.90;99.90;;;;;;5077109;28;20076;-73
2023/05/02 06:29:08;;;;;;;0.10;0.10;;;13.90;99.90;;;;;;5077997;28;20061;-73
2023/05/02 06:31:33;;;;;;;0.20;0.20;;;14.10;99.90;;;;;;5078099;28;20035;-75
2023/05/02 06:33:59;;;;;;;0.20;0.20;;;14.10;99.90;;;;;;5077931;28;20662;-73
2023/05/02 06:36:26;;;;;;;0.10;0.10;;;14.20;99.90;;;;;;5078126;28;20028;-74
2023/05/02 06:38:52;;;;;;;0.82;0.82;;;14.40;99.90;;;;;;5078010;28;20012;-75
2023/05/02 06:41:19;;;;;;;0.10;0.10;;;11.90;99.90;;;;;;5076903;28;20703;-74
2023/05/02 06:43:45;;;;;;;0.10;0.10;;;14.60;99.90;;;;;;5077810;28;20028;-74
2023/05/02 06:46:11;;;;;;;0.28;0.28;;;16.30;99.90;;;;;;5077690;28;20406;-71
2023/05/02 06:48:37;;;;;;;0.10;0.10;;;15.00;99.90;;;;;;5077776;28;20024;-71
2023/05/02 06:51:03;;;;;;;0.10;0.10;;;15.20;99.90;;;;;;5077754;28;20008;-74
2023/05/02 06:53:30;;;;;;;0.20;0.20;;;15.20;99.90;;;;;;5078162;28;20051;-76
2023/05/02 06:55:56;;;;;;;0.10;0.10;;;15.20;99.90;;;;;;5079036;28;20050;-72
2023/05/02 06:58:22;;;;;;;0.10;0.10;;;15.30;99.90;;;;;;5078238;28;20028;-74
2023/05/02 07:00:49;;;;;;;0.10;0.10;;;15.50;99.90;;;;;;5078751;28;20017;-72
2023/05/02 07:03:15;;;;;;;0.20;0.20;;;16.10;99.90;;;;;;5077760;28;20687;-74
2023/05/02 07:05:41;;;;;;;0.10;0.10;;;;;;;;;;5077823;28;20020;-74
2023/05/02 07:08:07;;;;;;;0.10;0.10;;;15.80;99.90;;;;;;5078943;28;20017;-74
2023/05/02 07:10:33;;;;;;;0.10;0.10;;;16.00;99.90;;;;;;5077797;28;20205;-73
2023/05/02 07:12:59;;;;;;;0.10;0.10;;;16.20;99.90;;;;;;5077526;28;20563;-74
2023/05/02 07:15:25;;;;;;;1.08;1.08;;;;;;;;;;5077334;28;20024;-74
2023/05/02 07:17:51;;;;;;;0.20;0.20;;;16.50;99.90;;;;;;5077276;28;20012;-73
2023/05/02 07:20:17;;;;;;;0.10;0.10;;;16.60;99.90;;;;;;5077173;28;20016;-73
2023/05/02 07:22:43;;;;;;;0.20;0.20;;;;;;;;;;5077693;28;20020;-80
2023/05/02 07:25:09;;;;;;;1.15;1.15;;;15.60;99.90;;;;;;5077749;28;20024;-78
2023/05/02 07:27:35;;;;;;;2.15;2.05;;;17.10;99.90;;;;;;5076819;28;20020;-79
2023/05/02 07:30:01;;;;;;;0.17;0.17;;;17.20;99.90;;;;;;5079378;28;20012;-73
2023/05/02 07:32:27;;;;;;;0.22;0.22;;;17.40;99.90;;;;;;5082611;28;20731;-72
2023/05/02 07:34:54;;;;;;;0.10;0.10;;;17.50;99.90;;;;;;5082741;28;20030;-74
2023/05/02 07:37:20;;;;;;;0.55;0.55;;;17.60;99.90;;;;;;5082017;28;20016;-73
2023/05/02 07:39:46;;;;;;;0.68;0.68;;;;;;;;;;5082076;28;20039;-78
2023/05/02 07:42:12;;;;;;;0.10;0.10;;;17.90;99.90;;;;;;5082038;28;20605;-73
2023/05/02 07:44:38;;;;;;;1.85;1.75;;;18.00;99.90;;;;;;5082286;28;20100;-73
2023/05/02 07:47:04;;;;;;;0.10;0.10;;;18.10;99.90;;;;;;5084396;28;20012;-74
2023/05/02 07:49:30;;;;;;;0.10;0.10;;;17.90;99.90;;;;;;5082166;28;20027;-75
2023/05/02 07:51:56;;;;;;;0.10;0.10;;;;;;;;;;5081340;28;20020;-74
2023/05/02 07:54:25;;;;;;;0.10;0.10;;;18.70;99.90;;;;;;5080213;28;20141;-74
2023/05/02 07:56:50;;;;;;;0.10;0.10;;;18.50;99.90;;;;;;5081505;28;20044;-74
2023/05/02 07:59:16;;;;;;;1.13;1.05;;;18.50;99.90;;;;;;5082094;28;20044;-79
2023/05/02 08:01:43;;;;;;;1.13;1.02;;;18.50;99.90;;;;;;5081124;28;20716;-73
2023/05/02 08:04:11;;;;;;;0.98;0.98;;;18.70;99.90;;;;;;5079582;28;20104;-74
2023/05/02 08:06:40;;;;;;;0.52;0.52;;;18.80;99.90;;;;;;5081209;28;20031;-74
2023/05/02 08:09:08;;;;;;;0.10;0.10;;;18.90;99.90;;;;;;5079295;28;20039;-78
2023/05/02 08:11:33;;;;;;;0.10;0.10;;;19.10;99.90;;;;;;5080653;28;20016;-73
2023/05/02 08:13:59;;;;;;;2.75;1.33;;;19.10;99.90;;;;;;5080660;28;20032;-74
2023/05/02 08:16:25;;;;;;;0.10;0.10;;;19.10;99.90;;;;;;5080633;28;20581;-73
2023/05/02 08:18:51;;;;;;;0.10;0.10;;;19.40;99.90;;;;;;5080680;28;20087;-73
2023/05/02 08:21:16;;;;;;;12.75;1.98;;;19.60;99.90;;;;;;5079087;28;20024;-78
2023/05/02 08:23:42;;;;;;;0.10;0.10;;;19.80;99.90;;;;;;5080772;28;20055;-72
2023/05/02 08:26:08;;;;;;;0.10;0.10;;;19.90;99.90;;;;;;5079565;28;20089;-73
2023/05/02 08:28:34;;;;;;;0.20;0.20;;;19.40;99.90;;;;;;5080664;28;20051;-73
2023/05/02 08:31:00;;;;;;;0.10;0.10;;;19.40;99.90;;;;;;5080160;28;20638;-73
2023/05/02 08:33:25;;;;;;;0.17;0.17;;;19.60;99.90;;;;;;5080011;28;20020;-77
2023/05/02 08:35:54;;;;;;;0.10;0.10;;;19.60;99.90;;;;;;5080818;28;20247;-73
2023/05/02 08:38:20;;;;;;;0.10;0.10;;;19.60;99.90;;;;;;5080691;28;20031;-71
2023/05/02 08:40:46;;;;;;;0.30;0.30;;;19.10;99.90;;;;;;5080017;28;20028;-70
2023/05/02 08:43:12;;;;;;;0.10;0.10;;;18.90;99.90;;;;;;5080116;28;20032;-72
2023/05/02 08:45:43;;;;;;;0.10;0.10;;;18.70;99.90;;;;;;5080298;28;20110;-72
2023/05/02 08:48:11;;;;;;;0.15;0.15;;;18.60;99.90;;;;;;5080269;28;20020;-72
2023/05/02 08:50:40;;;;;;;0.50;0.50;;;18.30;99.90;;;;;;5079774;28;20025;-74
2023/05/02 08:53:10;;;;;;;0.20;0.20;;;18.30;99.90;;;;;;5079834;28;20020;-73
2023/05/02 08:55:41;;;;;;;0.10;0.10;;;18.10;99.90;;;;;;5079954;28;20070;-77
2023/05/02 08:58:08;;;;;;;0.32;0.32;;;18.10;99.90;;;;;;5079802;28;20073;-73
2023/05/02 09:00:41;;;;;;;0.10;0.10;;;18.20;99.90;;;;;;5080191;28;20494;-80
2023/05/02 09:03:32;;;;;;;1.58;1.48;;;18.30;99.90;;;;;;5079650;28;20104;-72
2023/05/02 09:06:07;;;;;;;0.20;0.20;;;18.30;99.90;;;;;;5079587;28;20017;-73
2023/05/02 09:08:33;;;;;;;0.10;0.10;;;18.40;99.90;;;;;;5079804;28;20107;-73
2023/05/02 09:11:02;;;;;;;0.10;0.10;;;18.40;99.90;;;;;;5077937;28;20020;-72
2023/05/02 09:13:35;;;;;;;0.10;0.10;;;18.40;99.90;;;;;;5078466;28;20028;-73
2023/05/02 09:16:28;;;;;;;0.10;0.10;;;18.40;99.90;;;;;;5079194;28;20039;-73
2023/05/02 09:18:56;;;;;;;0.10;0.10;;;16.60;99.90;;;;;;5076422;28;20027;-72
2023/05/02 09:21:34;;;;;;;3.30;1.48;;;18.30;99.90;;;;;;5079456;28;20055;-73
2023/05/02 09:24:02;;;;;;;0.10;0.10;;;20.00;99.90;;;;;;5080050;28;20023;-77
2023/05/02 09:26:32;;;;;;;0.10;0.10;;;19.10;99.90;;;;;;5079938;28;20023;-84
2023/05/02 09:29:04;;;;;;;0.10;0.10;;;18.40;99.90;;;;;;5081773;28;20023;-77
2023/05/02 09:31:34;;;;;;;0.10;0.10;;;18.50;99.90;;;;;;5080956;28;20028;-82
2023/05/02 09:34:09;;;;;;;0.10;0.10;;;18.40;99.90;;;;;;5081087;28;20310;-83
2023/05/02 09:36:52;;;;;;;0.45;0.45;;;18.60;99.90;;;;;;5079533;28;20074;-82
2023/05/02 09:39:29;;;;;;;0.30;0.30;;;18.60;99.90;;;;;;5080731;28;20340;-79
2023/05/02 09:41:57;;;;;;;0.10;0.10;;;18.70;99.90;;;;;;5079869;28;20090;-80
2023/05/02 09:44:24;;;;;;;0.10;0.10;;;18.80;99.90;;;;;;5079927;28;20518;-78
2023/05/02 09:46:55;;;;;;;0.40;0.40;;;18.90;99.90;;;;;;5079589;28;20072;-83
2023/05/02 09:49:45;;;;;;;0.10;0.10;;;19.00;99.90;;;;;;5079781;28;20564;-85
2023/05/02 09:52:15;;;;;;;0.10;0.10;;;19.10;99.90;;;;;;5079032;28;20704;-86
2023/05/02 09:54:41;;;;;;;0.10;0.10;;;19.20;99.90;;;;;;5077815;28;20078;-73
2023/05/02 09:57:09;;;;;;;0.40;0.40;;;18.90;99.30;;;;;;5077853;28;20016;-75
2023/05/02 09:59:39;;;;;;;0.10;0.10;;;18.90;99.90;;;;;;5078941;28;20754;-74
2023/05/02 10:02:08;;;;;;;0.10;0.10;;;18.90;99.70;;;;;;5078403;28;20083;-74
2023/05/02 10:04:35;;;;;;;0.10;0.10;;;18.90;99.00;;;;;;5077921;28;20020;-72
2023/05/02 10:07:02;;;;;;;0.20;0.20;;;18.80;99.60;;;;;;5078658;28;20034;-72
2023/05/02 10:09:31;;;;;;;0.17;0.17;;;18.70;99.90;;;;;;5078500;28;20020;-77
2023/05/02 10:12:03;;;;;;;0.25;0.25;;;18.80;99.90;;;;;;5078435;28;20117;-77
2023/05/02 10:14:34;;;;;;;0.10;0.10;;;18.70;99.30;;;;;;5077567;28;20528;-72
2023/05/02 10:17:20;;;;;;;0.10;0.10;;;18.70;99.60;;;;;;5078436;28;20101;-76
2023/05/02 10:19:54;;;;;;;0.88;0.82;;;18.70;99.90;;;;;;5078210;28;20100;-73
2023/05/02 10:22:21;;;;;;;0.10;0.10;;;20.70;99.60;;;;;;5078896;28;20039;-72
2023/05/02 10:24:48;;;;;;;0.20;0.20;;;18.80;98.60;;;;;;5079308;28;20670;-83
2023/05/02 10:27:14;;;;;;;0.10;0.10;;;18.30;98.00;;;;;;5079053;28;20027;-80
2023/05/02 10:29:41;;;;;;;0.10;0.10;;;19.10;98.20;;;;;;5079357;28;20666;-72
2023/05/02 10:32:08;;;;;;;0.10;0.10;;;19.10;97.60;;;;;;5078573;28;20654;-83
2023/05/02 10:34:36;;;;;;;0.10;0.10;;;19.30;97.50;;;;;;5079296;28;20047;-78
2023/05/02 10:37:02;;;;;;;0.10;0.10;;;19.40;97.10;;;;;;5078825;28;20090;-79
2023/05/02 10:39:29;;;;;;;0.10;0.10;;;19.20;97.50;;;;;;5077065;28;20614;-73
2023/05/02 10:41:57;;;;;;;0.10;0.10;;;19.20;97.60;;;;;;5078190;28;20524;-72
2023/05/02 10:44:37;;;;;;;0.10;0.10;;;19.30;97.30;;;;;;5078115;28;20012;-73
2023/05/02 10:47:23;;;;;;;0.10;0.10;;;19.20;96.40;;;;;;5076341;28;20658;-72
2023/05/02 10:49:56;;;;;;;0.32;0.32;;;19.10;97.00;;;;;;5078167;28;20023;-73
2023/05/02 10:52:28;;;;;;;0.10;0.10;;;19.10;96.40;;;;;;5079324;28;20016;-74
2023/05/02 10:55:12;;;;;;;0.10;0.10;;;19.20;96.30;;;;;;5078081;28;20054;-72
2023/05/02 10:57:57;;;;;;;0.10;0.10;;;19.20;95.60;;;;;;5078022;28;20109;-72
2023/05/02 11:00:34;;;;;;;0.47;0.47;;;18.90;96.30;;;;;;5078483;28;20035;-72
2023/05/02 11:03:00;;;;;;;0.10;0.10;;;18.90;96.50;;;;;;5077700;28;20020;-79
2023/05/02 11:05:27;;;;;;;0.10;0.10;;;18.50;96.60;;;;;;5075905;28;20028;-72
2023/05/02 11:08:15;;;;;;;0.10;0.10;;;18.60;97.70;;;;;;5076833;28;20024;-76
2023/05/02 11:10:41;;;;;;;0.10;0.10;;;;;;;;;;5078553;28;20040;-75
2023/05/02 11:13:07;;;;;;;0.20;0.20;;;18.60;98.10;;;;;;5078804;28;20039;-79
2023/05/02 11:15:32;;;;;;;0.10;0.10;;;18.50;98.40;;;;;;5078476;28;20032;-75
2023/05/02 11:18:06;;;;;;;0.10;0.10;;;18.50;98.40;;;;;;5078046;28;20220;-71
2023/05/02 11:20:33;;;;;;;0.40;0.40;;;18.40;99.70;;;;;;5077017;28;20025;-76
2023/05/02 11:25:45;;;;;;;0.10;0.10;;;18.30;99.90;;;;;;5078055;28;20050;-85
2023/05/02 11:28:33;;;;;;;0.10;0.10;;;18.30;99.90;;;;;;5078146;28;20009;-75
2023/05/02 11:30:59;;;;;;;0.50;0.50;;;18.40;99.90;;;;;;5077807;28;20035;-74
2023/05/02 11:33:32;;;;;;;0.10;0.10;;;18.40;99.90;;;;;;5077101;28;20558;-71
2023/05/02 11:35:58;;;;;;;1.25;1.17;;;18.40;99.90;;;;;;5077407;28;20059;-81
2023/05/02 11:38:25;;;;;;;4.68;4.28;;;18.30;99.90;;;;;;5077408;28;20028;-81
2023/05/02 11:41:01;;;;;;;2.78;2.58;;;18.30;99.90;;;;;;5077106;28;20615;-71
2023/05/02 11:43:28;;;;;;;0.15;0.15;;;18.20;99.90;;;;;;5077491;28;20239;-72
2023/05/02 11:45:55;;;;;;;1.02;0.77;;;18.20;99.90;;;;;;5078290;28;20701;-73
2023/05/02 11:48:22;;;;;;;4.10;2.50;;;18.20;99.50;;;;;;5077960;28;20626;-84
2023/05/02 11:50:54;;;;;;;1.02;1.00;;;18.30;99.50;;;;;;5077951;28;20557;-73
2023/05/02 11:53:22;;;;;;;0.10;0.10;;;18.30;99.70;;;;;;5077762;28;20085;-79
2023/05/02 11:55:49;;;;;;;0.10;0.10;;;18.20;99.70;;;;;;5077491;28;20117;-77
2023/05/02 11:58:17;;;;;;;0.63;0.63;;;18.20;99.90;;;;;;5077952;28;20134;-83
2023/05/02 12:00:45;;;;;;;0.25;0.25;;;18.20;99.90;;;;;;5078438;28;20674;-80
2023/05/02 12:03:22;;;;;;;0.22;0.22;;;18.30;99.90;;;;;;5078214;28;20103;-88
2023/05/02 12:05:48;;;;;;;0.98;0.90;;;18.30;99.90;;;;;;5077823;28;20100;-75
2023/05/02 12:08:31;;;;;;;0.88;0.55;;;18.40;99.80;;;;;;5077878;28;20089;-79
2023/05/02 12:10:56;;;;;;;0.60;0.57;;;18.40;99.70;;;;;;5078153;28;20016;-78
2023/05/02 12:13:25;;;;;;;0.10;0.10;;;18.50;99.60;;;;;;5078257;28;20036;-75
2023/05/02 12:15:52;;;;;;;0.10;0.10;;;15.70;99.70;;;;;;5079023;28;20073;-76
2023/05/02 12:18:19;;;;;;;0.10;0.10;;;18.60;99.90;;;;;;5081453;28;20012;-77
2023/05/02 12:20:45;;;;;;;0.10;0.10;;;18.80;99.90;;;;;;5081601;28;20020;-81
2023/05/02 12:23:11;;;;;;;0.10;0.10;;;18.90;99.40;;;;;;5081418;28;20004;-79
2023/05/02 12:25:39;;;;;;;0.10;0.10;;;19.10;98.80;;;;;;5080921;28;20724;-75
2023/05/02 12:28:05;;;;;;;0.10;0.10;;;19.20;98.50;;;;;;5081775;28;20713;-76
2023/05/02 12:30:31;;;;;;;0.10;0.10;;;19.20;98.10;;;;;;5079599;28;20089;-78
2023/05/02 12:33:00;;;;;;;0.30;0.30;;;19.40;98.20;;;;;;5081240;28;20661;-80
2023/05/02 12:35:27;;;;;;;0.10;0.10;;;19.50;98.70;;;;;;5081154;28;20107;-79
2023/05/02 12:37:53;;;;;;;0.10;0.10;;;19.60;97.60;;;;;;5081844;28;20024;-77
2023/05/02 12:40:19;;;;;;;0.10;0.10;;;19.70;95.60;;;;;;5081656;28;20024;-77
2023/05/02 12:43:03;;;;;;;0.10;0.10;;;19.80;96.10;;;;;;5081678;28;20786;-76
2023/05/02 12:45:35;;;;;;;0.10;0.10;;;21.00;96.30;;;;;;5080273;28;20030;-77
2023/05/02 12:48:16;;;;;;;0.10;0.10;;;19.80;95.90;;;;;;5082109;28;20088;-81
2023/05/02 12:50:41;;;;;;;0.10;0.10;;;19.80;95.90;;;;;;5082565;28;20041;-77
2023/05/02 12:53:07;;;;;;;0.10;0.10;;;19.70;94.80;;;;;;5081085;28;20676;-81
2023/05/02 12:55:33;;;;;;;0.30;0.30;;;19.60;95.30;;;;;;5082441;28;20027;-77
2023/05/02 12:58:04;;;;;;;0.10;0.10;;;19.50;95.30;;;;;;5082450;28;20020;-78
2023/05/02 13:00:32;;;;;;;0.10;0.10;;;19.30;96.20;;;;;;5081434;28;20012;-72